createdAt,value
2019-02-06T00:03:35.628Z,18.23
2019-02-06T00:08:00.269Z,18.35
2019-02-06T00:12:24.477Z,18.95
2019-02-06T00:16:48.623Z,19.05
2019-02-06T00:21:13.011Z,17.55
2019-02-06T00:25:37.287Z,17.37
2019-02-06T00:30:01.833Z,18.50
2019-02-06T00:34:26.260Z,18.07
2019-02-06T00:38:50.680Z,17.52
2019-02-06T00:43:15.020Z,18.85
2019-02-06T00:47:40.976Z,17.90
2019-02-06T00:52:05.570Z,18.87
2019-02-06T00:56:30.125Z,18.65
2019-02-06T01:00:54.617Z,18.87
2019-02-06T01:05:18.996Z,18.57
2019-02-06T01:09:43.170Z,17.92
2019-02-06T01:14:08.080Z,19.57
2019-02-06T01:18:32.159Z,18.48
2019-02-06T01:22:57.476Z,18.40
2019-02-06T01:27:21.686Z,17.75
2019-02-06T01:31:46.012Z,17.35
2019-02-06T01:36:10.403Z,19.70
2019-02-06T01:40:34.581Z,17.98
2019-02-06T01:44:58.876Z,19.37
2019-02-06T01:49:23.175Z,19.73
2019-02-06T01:53:47.501Z,20.75
2019-02-06T01:58:12.142Z,20.27
2019-02-06T02:02:36.891Z,19.92
2019-02-06T02:07:01.723Z,21.87
2019-02-06T02:11:26.087Z,20.65
2019-02-06T02:15:50.331Z,20.70
2019-02-06T02:20:24.919Z,19.12
2019-02-06T02:24:49.123Z,20.88
2019-02-06T02:29:13.790Z,19.27
2019-02-06T02:33:38.324Z,20.10
2019-02-06T02:38:02.725Z,20.52
2019-02-06T02:42:27.256Z,20.57
2019-02-06T02:46:51.706Z,19.95
2019-02-06T02:51:15.949Z,20.15
2019-02-06T02:55:40.579Z,21.00
2019-02-06T03:00:12.748Z,19.45
2019-02-06T03:04:38.585Z,19.62
2019-02-06T03:09:03.184Z,19.23
2019-02-06T03:13:29.328Z,19.17
2019-02-06T03:17:53.680Z,20.15
2019-02-06T03:22:18.036Z,20.27
2019-02-06T03:26:42.367Z,20.95
2019-02-06T03:31:07.082Z,19.87
2019-02-06T03:35:31.630Z,20.30
2019-02-06T03:39:56.146Z,18.55
2019-02-06T03:44:20.439Z,20.35
2019-02-06T03:48:44.709Z,19.32
2019-02-06T03:53:09.601Z,18.75
2019-02-06T03:57:35.420Z,19.05
2019-02-06T04:01:59.850Z,17.37
2019-02-06T04:06:24.322Z,17.90
2019-02-06T04:10:48.882Z,18.60
2019-02-06T04:15:13.527Z,17.67
2019-02-06T04:19:37.738Z,17.50
2019-02-06T04:24:02.492Z,18.02
2019-02-06T04:28:27.038Z,20.12
2019-02-06T04:32:51.826Z,16.62
2019-02-06T04:37:16.255Z,18.02
2019-02-06T04:41:40.684Z,16.75
2019-02-06T04:46:05.536Z,17.12
2019-02-06T04:50:30.263Z,17.05
2019-02-06T04:54:54.499Z,17.92
2019-02-06T04:59:18.844Z,16.30
2019-02-06T05:03:43.178Z,16.52
2019-02-06T05:08:07.571Z,17.05
2019-02-06T05:12:31.989Z,16.42
2019-02-06T05:16:56.263Z,16.37
2019-02-06T05:21:20.668Z,18.57
2019-02-06T05:25:45.273Z,17.42
2019-02-06T05:30:10.874Z,16.87
2019-02-06T05:34:35.707Z,17.12
2019-02-06T05:39:00.365Z,17.02
2019-02-06T05:43:24.834Z,17.95
2019-02-06T05:47:49.060Z,17.17
2019-02-06T05:52:13.517Z,18.40
2019-02-06T05:56:37.750Z,16.40
2019-02-06T06:01:03.602Z,18.40
2019-02-06T06:05:28.352Z,16.97
2019-02-06T06:09:52.761Z,17.85
2019-02-06T06:14:17.358Z,18.05
2019-02-06T06:18:41.721Z,17.48
2019-02-06T06:23:06.120Z,16.87
2019-02-06T06:27:30.305Z,24.12
2019-02-06T06:31:54.697Z,17.35
2019-02-06T06:36:18.977Z,16.80
2019-02-06T06:40:43.684Z,16.15
2019-02-06T06:45:11.330Z,16.25
2019-02-06T06:49:35.957Z,22.02
2019-02-06T06:54:00.785Z,17.10
2019-02-06T06:58:25.308Z,18.85
2019-02-06T07:02:49.637Z,18.40
2019-02-06T07:07:13.775Z,18.45
2019-02-06T07:11:37.943Z,19.95
2019-02-06T07:16:02.663Z,20.30
2019-02-06T07:20:26.995Z,19.77
2019-02-06T07:24:51.635Z,22.77
2019-02-06T07:29:15.933Z,22.48
2019-02-06T07:33:40.448Z,23.62
2019-02-06T07:38:05.027Z,25.40
2019-02-06T07:42:29.333Z,23.32
2019-02-06T07:46:54.041Z,26.10
2019-02-06T07:51:18.637Z,25.40
2019-02-06T07:55:43.128Z,27.98
2019-02-06T08:00:08.643Z,29.18
2019-02-06T08:04:32.921Z,29.87
2019-02-06T08:08:57.217Z,28.95
2019-02-06T08:13:21.788Z,30.43
2019-02-06T08:17:46.340Z,30.80
2019-02-06T08:22:11.524Z,31.15
2019-02-06T08:26:35.824Z,31.40
2019-02-06T08:31:00.419Z,32.98
2019-02-06T08:35:24.823Z,30.62
2019-02-06T08:39:49.388Z,31.05
2019-02-06T08:44:13.730Z,33.15
2019-02-06T08:48:39.180Z,33.90
2019-02-06T08:53:03.583Z,31.60
2019-02-06T08:57:28.018Z,30.15
2019-02-06T09:01:52.713Z,29.92
2019-02-06T09:06:17.848Z,29.87
2019-02-06T09:10:42.634Z,28.75
2019-02-06T09:15:08.384Z,28.02
2019-02-06T09:19:33.093Z,25.97
2019-02-06T09:23:57.822Z,25.10
2019-02-06T09:28:22.149Z,25.90
2019-02-06T09:32:46.992Z,25.82
2019-02-06T09:37:11.216Z,25.30
2019-02-06T09:41:35.789Z,24.10
2019-02-06T09:46:00.293Z,23.95
2019-02-06T09:50:30.512Z,24.18
2019-02-06T09:54:56.249Z,23.30
2019-02-06T09:59:20.851Z,24.35
2019-02-06T10:03:47.038Z,22.45
2019-02-06T10:08:11.690Z,23.40
2019-02-06T10:12:36.690Z,33.50
2019-02-06T10:17:10.044Z,23.85
2019-02-06T10:21:35.017Z,22.37
2019-02-06T10:25:59.823Z,22.50
2019-02-06T10:30:36.417Z,20.77
2019-02-06T10:35:01.112Z,20.82
2019-02-06T10:39:34.302Z,21.20
2019-02-06T10:43:52.158Z,19.27
2019-02-06T10:48:17.170Z,19.70
2019-02-06T10:52:41.984Z,19.20
2019-02-06T10:57:06.679Z,19.02
2019-02-06T11:01:33.021Z,18.10
2019-02-06T11:05:57.956Z,16.50
2019-02-06T11:10:25.397Z,15.23
2019-02-06T11:14:50.104Z,15.43
2019-02-06T11:19:14.806Z,17.40
2019-02-06T11:23:39.612Z,15.72
2019-02-06T11:28:04.317Z,16.60
2019-02-06T11:32:29.635Z,16.23
2019-02-06T11:36:54.441Z,15.58
2019-02-06T11:41:20.277Z,15.35
2019-02-06T11:45:45.078Z,15.63
2019-02-06T11:50:12.548Z,15.10
2019-02-06T11:54:37.967Z,15.35
2019-02-06T11:59:02.673Z,14.80
2019-02-06T12:03:27.784Z,14.13
2019-02-06T12:07:52.489Z,15.05
2019-02-06T12:12:16.988Z,13.65
2019-02-06T12:16:41.491Z,13.20
2019-02-06T12:21:06.365Z,13.98
2019-02-06T12:25:34.271Z,13.98
2019-02-06T12:29:58.795Z,14.47
2019-02-06T12:34:24.911Z,13.65
2019-02-06T12:38:53.430Z,13.53
2019-02-06T12:43:16.982Z,12.90
2019-02-06T12:47:41.893Z,14.05
2019-02-06T12:52:07.112Z,13.40
2019-02-06T12:56:31.918Z,13.60
2019-02-06T13:00:56.617Z,14.33
2019-02-06T13:05:21.731Z,14.35
2019-02-06T13:09:46.644Z,13.43
2019-02-06T13:14:12.004Z,13.05
2019-02-06T13:18:37.098Z,13.93
2019-02-06T13:23:02.081Z,14.70
2019-02-06T13:27:26.713Z,13.38
2019-02-06T13:31:51.389Z,13.03
2019-02-06T13:36:15.887Z,16.15
2019-02-06T13:40:45.872Z,11.68
2019-02-06T13:45:12.721Z,12.28
2019-02-06T13:49:37.765Z,11.55
2019-02-06T13:54:02.813Z,11.48
2019-02-06T13:58:27.292Z,11.15
2019-02-06T14:02:53.428Z,10.93
2019-02-06T14:07:19.876Z,10.95
2019-02-06T14:11:44.474Z,11.63
2019-02-06T14:16:11.636Z,11.38
2019-02-06T14:20:36.470Z,11.50
2019-02-06T14:25:02.073Z,11.55
2019-02-06T14:29:59.547Z,12.23
2019-02-06T14:34:36.740Z,10.80
2019-02-06T14:39:13.833Z,10.72
2019-02-06T14:43:51.338Z,11.95
2019-02-06T14:48:20.866Z,12.45
2019-02-06T14:53:14.330Z,10.43
2019-02-06T14:57:50.811Z,10.58
2019-02-06T15:02:31.351Z,11.35
2019-02-06T15:07:17.744Z,10.23
2019-02-06T15:11:48.750Z,11.08
2019-02-06T15:16:31.604Z,11.12
2019-02-06T15:21:11.645Z,11.83
2019-02-06T15:25:53.759Z,11.68
2019-02-06T15:30:27.480Z,12.00
2019-02-06T15:35:03.644Z,11.20
2019-02-06T15:39:44.014Z,11.63
2019-02-06T15:44:14.965Z,12.63
2019-02-06T15:48:59.569Z,11.63
2019-02-06T15:53:28.027Z,11.83
2019-02-06T15:58:06.355Z,11.60
2019-02-06T16:02:40.204Z,12.20
2019-02-06T16:07:08.509Z,12.60
2019-02-06T16:11:49.034Z,13.15
2019-02-06T16:21:03.430Z,12.28
2019-02-06T16:25:34.484Z,12.25
2019-02-06T16:30:20.686Z,12.82
2019-02-06T16:35:06.212Z,13.10
2019-02-06T16:39:58.946Z,13.03
2019-02-06T16:44:51.090Z,12.37
2019-02-06T16:49:24.539Z,11.43
2019-02-06T16:53:55.752Z,12.82
2019-02-06T16:58:27.526Z,12.65
2019-02-06T17:03:12.349Z,12.98
2019-02-06T17:07:56.839Z,13.05
2019-02-06T17:12:38.158Z,15.03
2019-02-06T17:17:08.978Z,14.07
2019-02-06T17:21:56.853Z,14.43
2019-02-06T17:26:40.192Z,15.18
2019-02-06T17:31:23.970Z,13.90
2019-02-06T17:36:01.700Z,14.60
2019-02-06T17:40:41.307Z,15.48
2019-02-06T17:45:12.566Z,14.90
2019-02-06T17:50:06.694Z,14.87
2019-02-06T17:54:46.566Z,15.40
2019-02-06T17:59:11.015Z,16.23
2019-02-06T18:03:40.020Z,17.85
2019-02-06T18:08:07.643Z,16.90
2019-02-06T18:12:32.502Z,17.55
2019-02-06T18:16:58.845Z,17.85
2019-02-06T18:21:23.385Z,16.27
2019-02-06T18:25:51.968Z,16.75
2019-02-06T18:30:21.694Z,17.75
2019-02-06T18:34:46.800Z,17.67
2019-02-06T18:39:11.725Z,17.17
2019-02-06T18:43:40.722Z,17.85
2019-02-06T18:48:08.506Z,18.37
2019-02-06T18:52:36.892Z,16.62
2019-02-06T19:01:28.439Z,17.00
2019-02-06T19:05:53.221Z,15.20
2019-02-06T19:10:22.524Z,18.07
2019-02-06T19:14:48.053Z,16.57
2019-02-06T19:19:24.810Z,17.07
2019-02-06T19:23:42.934Z,16.77
2019-02-06T19:28:20.286Z,17.02
2019-02-06T19:32:46.734Z,16.52
2019-02-06T19:37:14.144Z,18.27
2019-02-06T19:41:40.314Z,17.10
2019-02-06T19:46:06.994Z,17.82
2019-02-06T19:50:40.298Z,17.82
2019-02-06T19:55:07.468Z,18.90
2019-02-06T19:59:32.881Z,17.73
2019-02-06T20:04:00.150Z,17.05
2019-02-06T20:08:25.261Z,17.77
2019-02-06T20:12:54.935Z,17.20
2019-02-06T20:17:23.378Z,17.55
2019-02-06T20:21:48.480Z,15.80
2019-02-06T20:26:18.255Z,16.25
2019-02-06T20:30:44.753Z,17.87
2019-02-06T20:35:16.418Z,16.97
2019-02-06T20:39:41.379Z,16.95
2019-02-06T20:44:06.137Z,17.23
2019-02-06T20:48:31.215Z,16.90
2019-02-06T20:52:57.590Z,16.90
2019-02-06T20:57:23.048Z,17.40
2019-02-06T21:01:47.919Z,17.20
2019-02-06T21:06:13.398Z,16.90
2019-02-06T21:10:38.655Z,17.30
2019-02-06T21:15:05.000Z,18.40
2019-02-06T21:19:30.217Z,18.30
2019-02-06T21:23:56.768Z,18.48
2019-02-06T21:28:21.978Z,17.30
2019-02-06T21:32:46.810Z,16.65
2019-02-06T21:37:11.911Z,16.90
2019-02-06T21:41:37.085Z,16.73
2019-02-06T21:46:02.745Z,15.85
2019-02-06T21:50:27.553Z,16.23
2019-02-06T21:54:52.352Z,18.30
2019-02-06T21:59:17.260Z,16.40
2019-02-06T22:03:42.374Z,17.65
2019-02-06T22:08:06.917Z,16.87
2019-02-06T22:12:31.785Z,17.50
2019-02-06T22:16:56.728Z,17.42
2019-02-06T22:21:21.600Z,17.48
2019-02-06T22:25:46.716Z,16.10
2019-02-06T22:30:29.046Z,16.90
2019-02-06T22:34:53.939Z,18.45
2019-02-06T22:39:18.952Z,18.27
2019-02-06T22:43:43.551Z,17.80
2019-02-06T22:48:09.076Z,18.10
2019-02-06T22:52:34.188Z,17.30
2019-02-06T22:56:59.814Z,18.02
2019-02-06T23:01:28.044Z,17.52
2019-02-06T23:05:54.814Z,17.05
2019-02-06T23:10:19.360Z,15.85
2019-02-06T23:14:45.285Z,18.02
2019-02-06T23:19:10.091Z,17.40
2019-02-06T23:23:34.898Z,17.50
2019-02-06T23:27:59.091Z,16.67
2019-02-06T23:32:24.206Z,16.73
2019-02-06T23:36:48.869Z,17.35
2019-02-06T23:41:13.614Z,17.07
2019-02-06T23:45:38.348Z,16.67
2019-02-06T23:50:02.882Z,17.48
2019-02-06T23:54:27.215Z,17.05
2019-02-06T23:58:52.048Z,17.12
